Axis, AL

6:57 PM CST on March 01, 2015 (GMT -0600)
Mobile Downtown | Change Station
CLOSE
Current Station
Airport
Location: Mobile Downtown,
Elevation: 23 ft
Nearby Weather Stations

Elev 23 ft 30.63 °N, 88.07 °W | Updated 4 minutes ago

Overcast
Overcast
58 °F
Feels Like 58 °F
N
7
Wind Variable Wind from NNE

Today
High -- | Low -- °F
--% Chance of Precip.
Yesterday
High -- | Low -- °F
Precip. -- in
6:18 AM 5:50 PM
Waxing Gibbous, 88% visible
Pressure 30.33 in
Visibility 6.0 miles
Clouds Overcast 700 ft
Dew Point 56 °F
Humidity 93%
Rainfall 0.01 in
Snow Depth Not available.
UV 0 out of 12
Pollen 8.50 out of 12
Air Quality Not available.
Flu Activity Not available.
METAR KBFM 020053Z AUTO 03006KT 6SM BR OVC007 14/13 A3033 RMK AO2 RAE05 SLP270 P0000 T01440133

More Conditions Fewer Conditions

Pressure 30.33 in
Visibility 6.0 miles
Clouds Overcast 700 ft
Dew Point 56 °F
Humidity 93%
Rainfall 0.01 in
Snow Depth Not available.
UV 0 out of 12
Pollen 8.50 out of 12
Air Quality Not available.
Flu Activity Not available.
METAR KBFM 020053Z AUTO 03006KT 6SM BR OVC007 14/13 A3033 RMK AO2 RAE05 SLP270 P0000 T01440133

More Conditions Fewer Conditions

10-Day Weather Forecast

Almanac

Astronomy

Mar. 01, 2015 Rise Set
Actual Time
Civil Twilight
Nautical Twilight
Astronomical Twilight
Moon
Length of Visible Light
Length of Day
Tomorrow will be .
, % of the Moon is Illuminated

Today's Extremes

State Highs State Lows

Community

WunderPhotos

Upload Photos

1,801,659 photos uploaded!

WunderBlogs® & News

Nearby

Air Quality

  Air Quality AQ Index Pollutant
Not available.

Snow Depth

Station Depth Elevation

Earthquake Activity

City Distance Mag. Time & Date
Minimum magnitude displayed is 2.5.

Coastal Water Temperatures

Place Temperature

Nearby Weather Stations